createdAt,value
2019-06-27T00:00:50.730Z,60
2019-06-27T00:01:50.748Z,60.3
2019-06-27T00:02:50.880Z,60.2
2019-06-27T00:03:50.608Z,60.2
2019-06-27T00:04:50.569Z,59.71
2019-06-27T00:05:50.855Z,60.2
2019-06-27T00:06:50.883Z,60.1
2019-06-27T00:07:50.908Z,60
2019-06-27T00:08:50.675Z,60.1
2019-06-27T00:09:50.745Z,60.3
2019-06-27T00:10:51.035Z,60.1
2019-06-27T00:11:51.015Z,60.58
2019-06-27T00:12:50.783Z,60.2
2019-06-27T00:13:50.812Z,60.2
2019-06-27T00:14:51.096Z,60.58
2019-06-27T00:15:51.124Z,60.3
2019-06-27T00:16:51.149Z,60
2019-06-27T00:17:51.181Z,60.1
2019-06-27T00:18:51.204Z,60.1
2019-06-27T00:19:50.967Z,60.1
2019-06-27T00:20:50.998Z,59.71
2019-06-27T00:21:51.290Z,59.71
2019-06-27T00:22:51.049Z,59.71
2019-06-27T00:23:51.073Z,60.1
2019-06-27T00:24:51.097Z,59.71
2019-06-27T00:25:51.387Z,60
2019-06-27T00:26:59.921Z,59.61
2019-06-27T00:27:51.458Z,60.1
2019-06-27T00:28:51.210Z,59.91
2019-06-27T00:29:51.516Z,59.97
2019-06-27T00:30:51.534Z,59.69
2019-06-27T00:31:51.603Z,60.07
2019-06-27T00:32:51.570Z,59.78
2019-06-27T00:33:51.618Z,59.78
2019-06-27T00:34:51.628Z,59.88
2019-06-27T00:35:51.654Z,59.91
2019-06-27T00:36:51.414Z,60
2019-06-27T00:37:51.444Z,59.69
2019-06-27T00:38:51.731Z,59.69
2019-06-27T00:39:51.761Z,59.88
2019-06-27T00:40:51.787Z,59.59
2019-06-27T00:41:51.816Z,59.69
2019-06-27T00:42:51.844Z,59.69
2019-06-27T00:43:51.865Z,59.88
2019-06-27T00:44:51.629Z,59.88
2019-06-27T00:45:51.657Z,59.97
2019-06-27T00:46:51.993Z,59.88
2019-06-27T00:47:51.713Z,59.88
2019-06-27T00:48:51.999Z,59.88
2019-06-27T00:49:52.040Z,60.07
2019-06-27T00:50:52.053Z,60.24
2019-06-27T00:51:51.836Z,59.75
2019-06-27T00:52:52.103Z,59.97
2019-06-27T00:53:51.869Z,59.84
2019-06-27T00:54:51.894Z,60.04
2019-06-27T00:55:52.182Z,60.14
2019-06-27T00:56:52.217Z,59.69
2019-06-27T00:57:52.238Z,59.75
2019-06-27T00:58:51.996Z,59.84
2019-06-27T00:59:52.290Z,59.84
2019-06-27T01:00:52.056Z,59.94
2019-06-27T01:01:52.350Z,60.04
2019-06-27T01:02:52.372Z,60.14
2019-06-27T01:03:52.130Z,60.24
2019-06-27T01:04:52.427Z,59.75
2019-06-27T01:05:52.182Z,60.14
2019-06-27T01:06:52.469Z,60.14
2019-06-27T01:07:52.257Z,60.14
2019-06-27T01:08:52.262Z,60.14
2019-06-27T01:09:52.554Z,60.14
2019-06-27T01:10:52.317Z,60.14
2019-06-27T01:11:52.346Z,59.75
2019-06-27T01:12:52.629Z,59.66
2019-06-27T01:13:52.661Z,59.84
2019-06-27T01:14:52.689Z,60.52
2019-06-27T01:15:52.710Z,60.24
2019-06-27T01:16:52.473Z,59.84
2019-06-27T01:17:52.765Z,60.04
2019-06-27T01:18:52.524Z,59.75
2019-06-27T01:19:52.553Z,60.14
2019-06-27T01:20:52.838Z,60.14
2019-06-27T01:21:52.604Z,60.14
2019-06-27T01:22:52.628Z,60.14
2019-06-27T01:23:52.655Z,60.14
2019-06-27T01:24:52.952Z,60.04
2019-06-27T01:25:52.967Z,60.24
2019-06-27T01:26:52.737Z,60.11
2019-06-27T01:27:53.021Z,60.11
2019-06-27T01:28:53.054Z,60.04
2019-06-27T01:29:53.076Z,60.11
2019-06-27T01:30:53.099Z,60.01
2019-06-27T01:31:52.870Z,60.14
2019-06-27T01:32:52.890Z,60.11
2019-06-27T01:33:52.916Z,59.82
2019-06-27T01:34:53.208Z,60.01
2019-06-27T01:35:53.227Z,60.21
2019-06-27T01:36:53.261Z,59.82
2019-06-27T01:37:53.280Z,60.21
2019-06-27T01:38:53.305Z,60.11
2019-06-27T01:39:53.340Z,60.01
2019-06-27T01:40:53.101Z,59.82
2019-06-27T01:41:53.140Z,59.82
2019-06-27T01:42:53.412Z,60.01
2019-06-27T01:43:55.178Z,60.01
2019-06-27T01:44:53.463Z,60.11
2019-06-27T01:45:53.870Z,60.11
2019-06-27T01:46:53.524Z,59.72
2019-06-27T01:47:53.282Z,59.82
2019-06-27T01:48:53.307Z,59.82
2019-06-27T01:49:53.337Z,60.11
2019-06-27T01:50:53.363Z,60.11
2019-06-27T01:51:53.650Z,60.59
2019-06-27T01:52:53.689Z,60.21
2019-06-27T01:53:53.439Z,60.5
2019-06-27T01:54:53.465Z,60.69
2019-06-27T01:55:53.503Z,60.69
2019-06-27T01:56:53.782Z,60.69
2019-06-27T01:57:53.550Z,60.11
2019-06-27T01:58:53.568Z,60.11
2019-06-27T01:59:53.874Z,60.4
2019-06-27T02:00:53.892Z,60.59
2019-06-27T02:01:53.645Z,60.66
2019-06-27T02:02:53.671Z,60.57
2019-06-27T02:03:53.702Z,60.78
2019-06-27T02:04:53.985Z,60.27
2019-06-27T02:05:54.011Z,60.3
2019-06-27T02:06:54.038Z,60.59
2019-06-27T02:07:54.062Z,60.5
2019-06-27T02:08:54.095Z,60.75
2019-06-27T02:09:53.857Z,60.57
2019-06-27T02:10:53.883Z,60.66
2019-06-27T02:11:54.185Z,60.75
2019-06-27T02:12:53.930Z,60.59
2019-06-27T02:13:54.218Z,60.75
2019-06-27T02:14:54.272Z,60.75
2019-06-27T02:15:54.008Z,60.66
2019-06-27T02:16:54.035Z,60.37
2019-06-27T02:17:54.067Z,60.37
2019-06-27T02:18:54.347Z,60.37
2019-06-27T02:19:54.116Z,60.57
2019-06-27T02:20:54.402Z,60.57
2019-06-27T02:21:54.162Z,60.37
2019-06-27T02:22:54.308Z,60.57
2019-06-27T02:23:54.478Z,60.57
2019-06-27T02:24:54.240Z,60.57
2019-06-27T02:25:54.536Z,60.57
2019-06-27T02:26:54.554Z,60.57
2019-06-27T02:28:05.517Z,60.47
2019-06-27T02:28:54.345Z,60.47
2019-06-27T02:29:54.371Z,60.57
2019-06-27T02:30:54.666Z,60.66
2019-06-27T02:31:54.698Z,60.75
2019-06-27T02:32:54.714Z,60.47
2019-06-27T02:33:54.741Z,60.57
2019-06-27T02:34:54.507Z,60.37
2019-06-27T02:35:54.526Z,60.57
2019-06-27T02:36:54.815Z,60.57
2019-06-27T02:37:54.874Z,60.57
2019-06-27T02:38:54.892Z,60.47
2019-06-27T02:39:54.901Z,60.85
2019-06-27T02:40:58.381Z,60.47
2019-06-27T02:41:55.120Z,60.27
2019-06-27T02:42:54.973Z,60.44
2019-06-27T02:43:54.747Z,60.47
2019-06-27T02:44:55.120Z,60.53
2019-06-27T02:45:55.158Z,60.47
2019-06-27T02:46:55.123Z,60.75
2019-06-27T02:47:55.108Z,60.47
2019-06-27T02:48:55.133Z,60.37
2019-06-27T02:49:54.904Z,60.57
2019-06-27T02:50:55.177Z,60.57
2019-06-27T02:51:55.211Z,60.57
2019-06-27T02:52:54.967Z,60.66
2019-06-27T02:53:55.256Z,60.37
2019-06-27T02:54:55.115Z,60.53
2019-06-27T02:55:55.317Z,60.53
2019-06-27T02:56:55.335Z,60.44
2019-06-27T02:57:55.365Z,60.44
2019-06-27T02:58:55.386Z,60.44
2019-06-27T02:59:55.165Z,60.53
2019-06-27T03:00:55.460Z,60.63
2019-06-27T03:01:55.461Z,60.53
2019-06-27T03:02:55.228Z,60.44
2019-06-27T03:03:55.511Z,60.44
2019-06-27T03:04:55.543Z,60.53
2019-06-27T03:05:55.573Z,60.44
2019-06-27T03:06:55.595Z,60.14
2019-06-27T03:07:55.621Z,60.63
2019-06-27T03:08:55.645Z,60.82
2019-06-27T03:09:55.691Z,60.24
2019-06-27T03:10:55.429Z,60.44
2019-06-27T03:11:59.649Z,60.53
2019-06-27T03:12:55.746Z,60.44
2019-06-27T03:13:55.775Z,60.63
2019-06-27T03:14:55.796Z,60.44
2019-06-27T03:15:55.833Z,60.34
2019-06-27T03:16:55.852Z,60.34
2019-06-27T03:17:55.621Z,60.24
2019-06-27T03:18:55.635Z,60.63
2019-06-27T03:19:55.932Z,60.63
2019-06-27T03:20:55.983Z,60.44
2019-06-27T03:21:55.717Z,60.34
2019-06-27T03:22:55.739Z,60.72
2019-06-27T03:23:56.025Z,60.63
2019-06-27T03:24:55.802Z,60.63
2019-06-27T03:25:55.818Z,60.63
2019-06-27T03:26:56.104Z,60.82
2019-06-27T03:27:56.132Z,60.72
2019-06-27T03:28:56.712Z,60.14
2019-06-27T03:29:55.929Z,60.02
2019-06-27T03:30:55.983Z,60.24
2019-06-27T03:31:56.250Z,60.14
2019-06-27T03:32:56.318Z,60.05
2019-06-27T03:33:56.022Z,59.95
2019-06-27T03:34:56.309Z,60.05
2019-06-27T03:35:56.433Z,60.21
2019-06-27T03:36:56.366Z,60.05
2019-06-27T03:37:56.413Z,60.05
2019-06-27T03:38:56.411Z,59.95
2019-06-27T03:39:56.447Z,59.76
2019-06-27T03:40:56.457Z,59.95
2019-06-27T03:41:56.220Z,59.95
2019-06-27T03:42:56.514Z,59.95
2019-06-27T03:43:56.568Z,59.56
2019-06-27T03:44:56.302Z,59.56
2019-06-27T03:45:56.327Z,59.86
2019-06-27T03:46:56.622Z,59.53
2019-06-27T03:47:56.649Z,60.11
2019-06-27T03:48:56.677Z,60.11
2019-06-27T03:49:56.693Z,60.11
2019-06-27T03:50:58.853Z,60.21
2019-06-27T03:51:56.740Z,60.11
2019-06-27T03:52:56.768Z,60.02
2019-06-27T03:53:56.804Z,59.92
2019-06-27T03:54:56.558Z,59.92
2019-06-27T03:55:56.849Z,60.02
2019-06-27T03:56:56.613Z,59.83
2019-06-27T03:57:56.898Z,59.73
2019-06-27T03:59:14.435Z,59.63
2019-06-27T03:59:56.684Z,59.73
2019-06-27T04:00:56.730Z,60.02
2019-06-27T04:01:56.995Z,59.73
2019-06-27T04:02:57.020Z,59.73
2019-06-27T04:03:56.784Z,59.73
2019-06-27T04:04:57.075Z,59.53
2019-06-27T04:05:57.113Z,59.53
2019-06-27T04:06:57.227Z,59.73
2019-06-27T04:07:57.158Z,59.73
2019-06-27T04:08:56.913Z,59.83
2019-06-27T04:09:56.949Z,59.92
2019-06-27T04:10:57.249Z,59.92
2019-06-27T04:11:57.297Z,59.83
2019-06-27T04:12:57.276Z,59.73
2019-06-27T04:13:57.309Z,59.73
2019-06-27T04:14:57.328Z,59.83
2019-06-27T04:15:57.357Z,59.73
2019-06-27T04:16:57.383Z,59.83
2019-06-27T04:17:57.408Z,59.83
2019-06-27T04:18:57.427Z,59.83
2019-06-27T04:19:57.200Z,59.83
2019-06-27T04:20:57.483Z,59.92
2019-06-27T04:21:57.246Z,59.73
2019-06-27T04:22:57.530Z,59.73
2019-06-27T04:23:57.561Z,59.34
2019-06-27T04:24:57.585Z,59.63
2019-06-27T04:25:57.380Z,59.44
2019-06-27T04:26:57.645Z,59.63
2019-06-27T04:28:02.558Z,59.25
2019-06-27T04:28:57.697Z,59.05
2019-06-27T04:29:57.469Z,59.05
2019-06-27T04:30:57.771Z,59.25
2019-06-27T04:31:57.763Z,59.25
2019-06-27T04:32:57.809Z,59.15
2019-06-27T04:33:57.813Z,59.25
2019-06-27T04:34:57.595Z,59.15
2019-06-27T04:35:57.874Z,59.73
2019-06-27T04:36:57.893Z,59.34
2019-06-27T04:37:57.655Z,59.63
2019-06-27T04:38:57.940Z,59.25
2019-06-27T04:39:57.705Z,58.89
2019-06-27T04:40:57.734Z,58.21
2019-06-27T04:41:58.031Z,58.31
2019-06-27T04:42:58.055Z,57.95
2019-06-27T04:43:57.809Z,57.66
2019-06-27T04:44:58.120Z,58.04
2019-06-27T04:45:58.123Z,57.5
2019-06-27T04:46:58.153Z,57.2
2019-06-27T04:47:57.911Z,56.82
2019-06-27T04:48:58.254Z,57.01
2019-06-27T04:49:57.974Z,56.72
2019-06-27T04:50:58.249Z,56.92
2019-06-27T04:51:58.021Z,56.62
2019-06-27T04:52:58.320Z,56.62
2019-06-27T04:53:58.325Z,56.52
2019-06-27T04:55:02.793Z,56.92
2019-06-27T04:55:58.420Z,56.72
2019-06-27T04:56:58.143Z,56.62
2019-06-27T04:57:58.431Z,56.92
2019-06-27T04:58:58.468Z,56.82
2019-06-27T04:59:58.478Z,56.79
2019-06-27T05:00:58.668Z,56.4
2019-06-27T05:01:58.539Z,56.3
2019-06-27T05:02:58.557Z,56.7
2019-06-27T05:03:58.583Z,56.88
2019-06-27T05:04:58.610Z,56.5
2019-06-27T05:05:58.635Z,56.4
2019-06-27T05:06:58.664Z,56.79
2019-06-27T05:07:58.695Z,57.08
2019-06-27T05:08:58.717Z,56.98
2019-06-27T05:09:58.750Z,57.18
2019-06-27T05:10:58.772Z,57.18
2019-06-27T05:11:58.530Z,57.56
2019-06-27T05:12:58.557Z,57.15
2019-06-27T05:13:58.579Z,57.15
2019-06-27T05:14:58.615Z,57.44
2019-06-27T05:15:58.893Z,57.44
2019-06-27T05:16:58.660Z,57.24
2019-06-27T05:17:58.985Z,57.34
2019-06-27T05:18:58.971Z,57.34
2019-06-27T05:20:01.927Z,57.34
2019-06-27T05:20:59.020Z,58.02
2019-06-27T05:21:59.046Z,57.44
2019-06-27T05:22:59.081Z,57.63
2019-06-27T05:23:59.162Z,57.73
2019-06-27T05:24:59.127Z,57.82
2019-06-27T05:25:59.156Z,57.82
2019-06-27T05:26:58.923Z,57.63
2019-06-27T05:27:58.937Z,57.92
2019-06-27T05:28:58.969Z,58.12
2019-06-27T05:30:11.856Z,57.73
2019-06-27T05:30:59.369Z,57.82
2019-06-27T05:31:59.041Z,57.54
2019-06-27T05:32:59.328Z,57.63
2019-06-27T05:33:59.093Z,57.63
2019-06-27T05:34:59.122Z,57.54
2019-06-27T05:36:02.113Z,57.63
2019-06-27T05:36:59.471Z,57.63
2019-06-27T05:37:59.506Z,57.63
2019-06-27T05:38:59.230Z,57.34
2019-06-27T05:39:59.506Z,57.63
2019-06-27T05:40:59.531Z,57.63
2019-06-27T05:41:59.296Z,57.63
2019-06-27T05:42:59.583Z,57.54
2019-06-27T05:43:59.614Z,57.54
2019-06-27T05:44:59.374Z,57.63
2019-06-27T05:45:59.402Z,57.82
2019-06-27T05:46:59.428Z,57.82
2019-06-27T05:47:59.720Z,57.92
2019-06-27T05:48:59.483Z,57.82
2019-06-27T05:49:59.769Z,57.82
2019-06-27T05:50:59.810Z,57.63
2019-06-27T05:51:59.812Z,57.63
2019-06-27T05:52:59.579Z,57.82
2019-06-27T05:53:59.623Z,57.34
2019-06-27T05:54:59.908Z,57.34
2019-06-27T05:55:59.917Z,57.24
2019-06-27T05:56:59.949Z,57.15
2019-06-27T05:57:59.969Z,57.15
2019-06-27T05:59:00.011Z,57.46
2019-06-27T06:00:00.042Z,57.08
2019-06-27T06:01:00.056Z,57.28
2019-06-27T06:02:00.079Z,56.88
2019-06-27T06:02:59.838Z,57.08
2019-06-27T06:04:00.128Z,56.3
2019-06-27T06:05:00.243Z,56.6
2019-06-27T06:06:00.174Z,56.79
2019-06-27T06:07:00.206Z,56.3
2019-06-27T06:08:00.234Z,56.79
2019-06-27T06:09:00.254Z,56.98
2019-06-27T06:10:00.284Z,56.88
2019-06-27T06:11:00.306Z,56.21
2019-06-27T06:12:00.187Z,57.08
2019-06-27T06:13:00.116Z,56.88
2019-06-27T06:14:00.125Z,56.6
2019-06-27T06:15:00.410Z,56.6
2019-06-27T06:16:03.578Z,56.79
2019-06-27T06:17:00.464Z,56.4
2019-06-27T06:18:00.486Z,56.21
2019-06-27T06:19:00.251Z,56.21
2019-06-27T06:20:00.280Z,56.21
2019-06-27T06:21:00.567Z,56.3
2019-06-27T06:22:00.592Z,56.98
2019-06-27T06:23:00.620Z,56.6
2019-06-27T06:24:00.650Z,56.88
2019-06-27T06:25:00.911Z,56.88
2019-06-27T06:26:00.695Z,56.5
2019-06-27T06:27:00.472Z,56.4
2019-06-27T06:28:00.747Z,56.79
2019-06-27T06:29:00.782Z,56.6
2019-06-27T06:30:00.796Z,56.6
2019-06-27T06:31:00.827Z,56.5
2019-06-27T06:32:00.867Z,56.88
2019-06-27T06:33:00.625Z,56.21
2019-06-27T06:34:00.974Z,56.6
2019-06-27T06:35:01.018Z,56.21
2019-06-27T06:36:00.698Z,56.3
2019-06-27T06:37:01.015Z,56.4
2019-06-27T06:38:00.743Z,56.5
2019-06-27T06:39:01.035Z,56.3
2019-06-27T06:40:00.798Z,56.3
2019-06-27T06:41:01.084Z,56.6
2019-06-27T06:42:01.144Z,56.21
2019-06-27T06:43:02.848Z,56.5
2019-06-27T06:44:00.902Z,56.21
2019-06-27T06:45:01.212Z,56.3
2019-06-27T06:46:01.224Z,56.3
2019-06-27T06:47:01.354Z,56.3
2019-06-27T06:48:01.029Z,56.3
2019-06-27T06:49:01.295Z,56.6
2019-06-27T06:50:01.321Z,56.4
2019-06-27T06:51:01.349Z,56.3
2019-06-27T06:52:01.113Z,56.3
2019-06-27T06:53:01.407Z,56.02
2019-06-27T06:54:01.418Z,56.11
2019-06-27T06:55:01.259Z,55.82
2019-06-27T06:56:01.485Z,55.73
2019-06-27T06:57:01.294Z,55.92
2019-06-27T06:58:01.528Z,56.02
2019-06-27T06:59:01.562Z,55.92
2019-06-27T07:00:01.586Z,55.92
2019-06-27T07:01:04.811Z,56.5
2019-06-27T07:02:01.679Z,55.92
2019-06-27T07:03:01.708Z,56.11
2019-06-27T07:04:01.693Z,56.14
2019-06-27T07:05:01.717Z,55.73
2019-06-27T07:06:01.753Z,56.02
2019-06-27T07:07:01.762Z,55.92
2019-06-27T07:08:01.525Z,55.82
2019-06-27T07:09:01.551Z,55.82
2019-06-27T07:10:01.873Z,55.73
2019-06-27T07:11:01.866Z,55.46
2019-06-27T07:12:01.917Z,55.34
2019-06-27T07:13:01.933Z,55.46
2019-06-27T07:14:01.948Z,55.24
2019-06-27T07:15:01.973Z,55.15
2019-06-27T07:16:01.993Z,55.15
2019-06-27T07:17:02.102Z,55.15
2019-06-27T07:18:02.052Z,54.79
2019-06-27T07:19:02.082Z,55.36
2019-06-27T07:20:01.932Z,54.85
2019-06-27T07:21:02.140Z,54.95
2019-06-27T07:22:01.888Z,55.15
2019-06-27T07:23:02.171Z,55.15
2019-06-27T07:24:02.204Z,54.95
2019-06-27T07:25:02.265Z,54.95
2019-06-27T07:26:02.254Z,54.85
2019-06-27T07:27:02.295Z,55.07
2019-06-27T07:28:02.327Z,54.79
2019-06-27T07:29:02.403Z,55.05
2019-06-27T07:30:02.097Z,54.85
2019-06-27T07:31:16.750Z,55.27
2019-06-27T07:32:02.158Z,55.15
2019-06-27T07:33:02.433Z,54.98
2019-06-27T07:34:02.201Z,55.05
2019-06-27T07:35:02.486Z,55.15
2019-06-27T07:36:02.587Z,55.24
2019-06-27T07:37:02.540Z,55.24
2019-06-27T07:38:02.306Z,55.24
2019-06-27T07:39:02.630Z,55.07
2019-06-27T07:40:02.647Z,55.34
2019-06-27T07:41:02.648Z,55.07
2019-06-27T07:42:02.668Z,55.24
2019-06-27T07:43:02.450Z,54.88
2019-06-27T07:44:02.761Z,55.15
2019-06-27T07:45:02.749Z,55.36
2019-06-27T07:46:02.798Z,55.15
2019-06-27T07:47:02.539Z,55.24
2019-06-27T07:48:02.828Z,55.27
2019-06-27T07:49:02.585Z,54.85
2019-06-27T07:50:02.878Z,54.95
2019-06-27T07:51:02.639Z,54.88
2019-06-27T07:52:02.665Z,55.34
2019-06-27T07:53:02.978Z,55.36
2019-06-27T07:54:03.195Z,55.07
2019-06-27T07:55:02.747Z,55.15
2019-06-27T07:56:03.025Z,55.27
2019-06-27T07:57:03.062Z,55.27
2019-06-27T07:58:02.821Z,54.85
2019-06-27T07:59:03.108Z,54.88
2019-06-27T08:00:03.143Z,54.75
2019-06-27T08:01:03.159Z,54.57
2019-06-27T08:02:03.185Z,54.75
2019-06-27T08:03:02.946Z,54.66
2019-06-27T08:04:03.231Z,54.37
2019-06-27T08:05:03.004Z,54.49
2019-06-27T08:06:03.311Z,55.05
2019-06-27T08:07:03.054Z,54.88
2019-06-27T08:08:03.453Z,54.66
2019-06-27T08:09:03.532Z,55.05
2019-06-27T08:10:03.393Z,55.27
2019-06-27T08:11:03.158Z,54.66
2019-06-27T08:12:03.178Z,54.69
2019-06-27T08:13:03.216Z,54.88
2019-06-27T08:14:03.501Z,54.69
2019-06-27T08:15:03.530Z,54.69
2019-06-27T08:16:03.546Z,54.59
2019-06-27T08:17:03.579Z,54.79
2019-06-27T08:18:03.610Z,54.79
2019-06-27T08:19:03.360Z,54.98
2019-06-27T08:20:03.423Z,54.88
2019-06-27T08:21:03.732Z,54.98
2019-06-27T08:22:03.701Z,54.88
2019-06-27T08:23:03.478Z,54.88
2019-06-27T08:24:03.543Z,54.85
2019-06-27T08:25:03.803Z,54.88
2019-06-27T08:26:03.808Z,54.88
2019-06-27T08:27:03.831Z,54.49
2019-06-27T08:28:03.852Z,54.79
2019-06-27T08:29:03.954Z,54.69
2019-06-27T08:30:07.171Z,54.88
2019-06-27T08:31:03.940Z,54.88
2019-06-27T08:32:03.983Z,54.21
2019-06-27T08:33:03.995Z,53.81
2019-06-27T08:34:04.015Z,54.11
2019-06-27T08:35:04.235Z,54.11
2019-06-27T08:36:04.061Z,54.01
2019-06-27T08:37:04.084Z,54.11
2019-06-27T08:38:04.141Z,53.91
2019-06-27T08:39:04.144Z,54.21
2019-06-27T08:40:04.197Z,54.01
2019-06-27T08:41:04.212Z,54.3
2019-06-27T08:42:04.255Z,53.81
2019-06-27T08:43:04.237Z,54.11
2019-06-27T08:44:04.271Z,53.91
2019-06-27T08:45:04.299Z,54.11
2019-06-27T08:46:04.339Z,54.11
2019-06-27T08:47:04.344Z,54.21
2019-06-27T08:48:04.374Z,54.3
2019-06-27T08:49:04.391Z,54.21
2019-06-27T08:50:04.452Z,54.01
2019-06-27T08:51:04.455Z,54.11
2019-06-27T08:52:04.212Z,54.01
2019-06-27T08:53:04.503Z,54.21
2019-06-27T08:54:04.525Z,53.91
2019-06-27T08:55:04.550Z,54.03
2019-06-27T08:56:04.313Z,53.81
2019-06-27T08:57:04.607Z,54.03
2019-06-27T08:58:04.714Z,54.11
2019-06-27T08:59:04.390Z,54.13
2019-06-27T09:00:04.915Z,54.21
2019-06-27T09:01:04.713Z,54.01
2019-06-27T09:02:11.608Z,54.33
2019-06-27T09:03:04.769Z,54.33
2019-06-27T09:04:04.836Z,54.23
2019-06-27T09:05:04.806Z,54.11
2019-06-27T09:06:04.628Z,54.13
2019-06-27T09:07:04.865Z,54.03
2019-06-27T09:08:04.949Z,54.3
2019-06-27T09:09:04.676Z,54.13
2019-06-27T09:10:04.945Z,54.13
2019-06-27T09:11:04.981Z,53.85
2019-06-27T09:12:04.725Z,53.94
2019-06-27T09:13:05.055Z,54.13
2019-06-27T09:14:04.803Z,54.33
2019-06-27T09:15:05.075Z,53.94
2019-06-27T09:16:04.835Z,53.94
2019-06-27T09:17:05.124Z,53.94
2019-06-27T09:18:04.887Z,53.94
2019-06-27T09:19:05.173Z,54.13
2019-06-27T09:20:05.206Z,54.13
2019-06-27T09:21:04.966Z,54.03
2019-06-27T09:22:05.252Z,54.23
2019-06-27T09:23:05.281Z,54.03
2019-06-27T09:24:05.298Z,54.23
2019-06-27T09:25:05.066Z,54.23
2019-06-27T09:26:05.398Z,54.23
2019-06-27T09:27:05.405Z,54.43
2019-06-27T09:28:05.177Z,54.03
2019-06-27T09:29:05.173Z,54.23
2019-06-27T09:30:05.496Z,53.94
2019-06-27T09:31:05.499Z,53.65
2019-06-27T09:32:05.510Z,54.13
2019-06-27T09:33:05.551Z,54.03
2019-06-27T09:34:05.689Z,54.13
2019-06-27T09:35:05.587Z,53.55
2019-06-27T09:36:05.609Z,53.85
2019-06-27T09:37:05.651Z,53.65
2019-06-27T09:38:05.677Z,54.33
2019-06-27T09:39:05.688Z,54.33
2019-06-27T09:40:05.456Z,53.75
2019-06-27T09:41:05.480Z,53.65
2019-06-27T09:42:06.050Z,53.75
2019-06-27T09:43:05.795Z,54.03
2019-06-27T09:44:05.828Z,53.55
2019-06-27T09:45:06.262Z,53.17
2019-06-27T09:46:05.874Z,53.55
2019-06-27T09:47:05.999Z,53.75
2019-06-27T09:48:05.923Z,53.65
2019-06-27T09:49:05.956Z,53.29
2019-06-27T09:50:05.717Z,54.03
2019-06-27T09:51:06.012Z,53.75
2019-06-27T09:52:06.030Z,53.26
2019-06-27T09:53:05.795Z,53.85
2019-06-27T09:54:05.825Z,53.75
2019-06-27T09:55:06.108Z,53.75
2019-06-27T09:56:06.142Z,53.85
2019-06-27T09:57:06.176Z,53.94
2019-06-27T09:58:06.188Z,54.06
2019-06-27T09:59:05.951Z,54.03
2019-06-27T10:00:06.240Z,54.23
2019-06-27T10:01:08.679Z,53.75
2019-06-27T10:02:06.296Z,53.77
2019-06-27T10:03:06.056Z,53.75
2019-06-27T10:04:06.363Z,53.85
2019-06-27T10:05:06.376Z,53.29
2019-06-27T10:06:06.395Z,53.65
2019-06-27T10:07:06.422Z,53.17
2019-06-27T10:08:06.448Z,53.09
2019-06-27T10:09:06.477Z,53.49
2019-06-27T10:10:06.240Z,53.26
2019-06-27T10:11:06.525Z,53.85
2019-06-27T10:12:06.575Z,53.67
2019-06-27T10:13:06.579Z,53.49
2019-06-27T10:14:06.629Z,53.39
2019-06-27T10:15:06.658Z,53.67
2019-06-27T10:16:06.662Z,53.77
2019-06-27T10:17:06.695Z,53.75
2019-06-27T10:18:06.474Z,53.87
2019-06-27T10:19:06.739Z,53.77
2019-06-27T10:20:06.773Z,53.87
2019-06-27T10:21:06.795Z,53.29
2019-06-27T10:22:06.819Z,53.77
2019-06-27T10:23:06.584Z,53.67
2019-06-27T10:24:06.934Z,53.87
2019-06-27T10:25:07.029Z,53.39
2019-06-27T10:26:06.663Z,53.29
2019-06-27T10:27:06.952Z,53.29
2019-06-27T10:28:06.979Z,53.87
2019-06-27T10:29:07.004Z,53.58
2019-06-27T10:30:07.029Z,53.87
2019-06-27T10:31:07.056Z,53.87
2019-06-27T10:32:06.823Z,53.97
2019-06-27T10:33:07.112Z,53.29
2019-06-27T10:34:07.286Z,53.19
2019-06-27T10:35:06.928Z,53.67
2019-06-27T10:36:07.303Z,53.67
2019-06-27T10:37:07.218Z,53.97
2019-06-27T10:38:06.987Z,53.58
2019-06-27T10:39:07.009Z,53.87
2019-06-27T10:40:07.294Z,53.67
2019-06-27T10:41:07.058Z,53.77
2019-06-27T10:42:07.349Z,53.67
2019-06-27T10:43:07.505Z,53.77
2019-06-27T10:44:07.401Z,54.16
2019-06-27T10:45:07.270Z,53.77
2019-06-27T10:46:07.194Z,53.67
2019-06-27T10:47:07.216Z,53.67
2019-06-27T10:48:07.247Z,53.77
2019-06-27T10:49:07.268Z,53.87
2019-06-27T10:50:07.560Z,53.29
2019-06-27T10:51:07.585Z,53.97
2019-06-27T10:52:07.665Z,53.29
2019-06-27T10:53:07.382Z,53.29
2019-06-27T10:54:07.668Z,53.77
2019-06-27T10:55:07.709Z,53.77
2019-06-27T10:56:07.727Z,53.77
2019-06-27T10:57:07.750Z,53.77
2019-06-27T10:58:07.512Z,53.67
2019-06-27T10:59:07.795Z,53.89
2019-06-27T11:00:07.823Z,53.77
2019-06-27T11:01:07.592Z,53.49
2019-06-27T11:02:07.878Z,53.19
2019-06-27T11:03:17.981Z,53.29
2019-06-27T11:04:07.929Z,53.49
2019-06-27T11:05:08.051Z,53.87
2019-06-27T11:06:07.725Z,53.49
2019-06-27T11:07:07.747Z,53.58
2019-06-27T11:08:07.790Z,53.49
2019-06-27T11:09:07.806Z,53.67
2019-06-27T11:10:08.089Z,53.97
2019-06-27T11:11:08.120Z,53.89
2019-06-27T11:12:08.143Z,53.41
2019-06-27T11:13:08.175Z,53.89
2019-06-27T11:14:08.207Z,53.22
2019-06-27T11:15:07.978Z,53.22
2019-06-27T11:16:08.035Z,53.51
2019-06-27T11:17:08.284Z,53.51
2019-06-27T11:18:08.040Z,53.31
2019-06-27T11:19:08.076Z,53.41
2019-06-27T11:20:08.166Z,53.89
2019-06-27T11:21:08.385Z,53.51
2019-06-27T11:22:08.408Z,54.09
2019-06-27T11:23:08.510Z,53.41
2019-06-27T11:24:08.202Z,53.31
2019-06-27T11:25:08.239Z,53.61
2019-06-27T11:26:11.858Z,53.89
2019-06-27T11:27:08.550Z,53.89
2019-06-27T11:28:10.194Z,53.29
2019-06-27T11:29:08.590Z,53.31
2019-06-27T11:30:09.386Z,53.31
2019-06-27T11:31:08.384Z,53.41
2019-06-27T11:32:08.691Z,53.41
2019-06-27T11:33:08.443Z,53.89
2019-06-27T11:34:08.722Z,53.31
2019-06-27T11:35:08.752Z,53.61
2019-06-27T11:36:08.786Z,53.7
2019-06-27T11:37:08.577Z,53.31
2019-06-27T11:38:08.836Z,53.51
2019-06-27T11:39:08.858Z,53.7
2019-06-27T11:40:11.951Z,53.31
2019-06-27T11:41:08.651Z,53.7
2019-06-27T11:42:08.938Z,53.31
2019-06-27T11:43:08.963Z,53.22
2019-06-27T11:44:08.998Z,53.41
2019-06-27T11:45:09.036Z,53.41
2019-06-27T11:46:11.177Z,53.31
2019-06-27T11:47:09.067Z,53.89
2019-06-27T11:48:08.840Z,53.41
2019-06-27T11:49:09.136Z,53.22
2019-06-27T11:50:09.277Z,53.12
2019-06-27T11:51:09.173Z,53.22
2019-06-27T11:52:09.218Z,53.31
2019-06-27T11:53:09.241Z,53.7
2019-06-27T11:54:09.255Z,53.22
2019-06-27T11:55:09.280Z,53.12
2019-06-27T11:56:09.311Z,53.12
2019-06-27T11:57:09.337Z,53.12
2019-06-27T11:58:09.363Z,53.12
2019-06-27T11:59:09.197Z,53.12
2019-06-27T12:00:09.162Z,53.31
2019-06-27T12:01:09.437Z,53.61
2019-06-27T12:02:09.542Z,53.12
2019-06-27T12:03:09.498Z,53.61
2019-06-27T12:04:09.265Z,53.12
2019-06-27T12:05:09.552Z,53.31
2019-06-27T12:06:09.313Z,53.02
2019-06-27T12:07:09.600Z,53.15
2019-06-27T12:08:13.396Z,52.93
2019-06-27T12:09:09.742Z,52.73
2019-06-27T12:10:09.944Z,53.02
2019-06-27T12:11:09.448Z,53.12
2019-06-27T12:12:09.732Z,53.12
2019-06-27T12:13:09.774Z,53.15
2019-06-27T12:14:09.787Z,52.95
2019-06-27T12:15:09.820Z,53.15
2019-06-27T12:16:09.855Z,53.05
2019-06-27T12:17:09.870Z,52.76
2019-06-27T12:18:09.937Z,53.15
2019-06-27T12:19:09.921Z,53.05
2019-06-27T12:20:09.948Z,52.76
2019-06-27T12:21:09.975Z,53.05
2019-06-27T12:22:09.737Z,53.05
2019-06-27T12:23:09.766Z,53.05
2019-06-27T12:24:10.091Z,53.05
2019-06-27T12:25:10.075Z,52.95
2019-06-27T12:26:10.111Z,52.76
2019-06-27T12:27:09.884Z,52.66
2019-06-27T12:28:10.157Z,52.76
2019-06-27T12:29:10.187Z,52.28
2019-06-27T12:30:10.281Z,52.37
2019-06-27T12:31:22.716Z,52.86
2019-06-27T12:32:10.275Z,52.56
2019-06-27T12:33:10.288Z,52.76
2019-06-27T12:34:10.426Z,52.95
2019-06-27T12:35:10.343Z,52.37
2019-06-27T12:36:10.369Z,52.56
2019-06-27T12:37:10.394Z,52.28
2019-06-27T12:38:10.164Z,52.56
2019-06-27T12:39:10.451Z,52.56
2019-06-27T12:40:10.494Z,52.2
2019-06-27T12:41:10.247Z,51.79
2019-06-27T12:42:10.269Z,51.81
2019-06-27T12:43:13.465Z,52.11
2019-06-27T12:44:10.323Z,51.81
2019-06-27T12:45:10.605Z,51.81
2019-06-27T12:46:10.375Z,52.11
2019-06-27T12:47:10.664Z,52.01
2019-06-27T12:48:10.690Z,52.11
2019-06-27T12:49:10.455Z,52.01
2019-06-27T12:50:10.507Z,51.81
2019-06-27T12:51:10.509Z,51.81
2019-06-27T12:52:10.807Z,51.72
2019-06-27T12:53:10.825Z,51.81
2019-06-27T12:54:10.927Z,51.72
2019-06-27T12:55:10.617Z,51.75
2019-06-27T12:56:10.908Z,51.62